AirNav   Phillips 66 Aviation Fuel
 
 1008 users online  

50TS TJ-CJ Private Heliport
San Antonio, Texas, USA

GOING TO SAN ANTONIO?


FAA INFORMATION EFFECTIVE 29 MARCH 2018

Location

FAA Identifier: 50TS
Lat/Long: 29-27-38.8360N / 098-19-50.0470W
29-27.647267N / 098-19.834117W
29.4607878 / -98.3305686
(estimated)
Elevation: 630 ft. / 192 m (estimated)
Variation: 08E (1980)
From city: 3 miles W of SAN ANTONIO, TX
Time zone: UTC -5 (UTC -6 during Standard Time)
Zip code: 78109

Heliport Operations

Heliport use: Private use. Permission required prior to landing
Activation date: 11/1986
Control tower: no
ARTCC: HOUSTON CENTER
FSS: SAN ANGELO FLIGHT SERVICE STATION
Attendance: DAYLIGHT HOURS
Wind indicator: yes
Segmented circle: no

Heliport Communications

WX ASOS at SAT (8 nm NW): PHONE 210-805-5583
WX ASOS at SSF (10 nm SW): PHONE 210-927-9391

Nearby radio navigation aids

VOR radial/distance  VOR name  Freq  Var
RNDr209/4.2RANDOLPH VORTAC112.3005E
SATr140/12.9SAN ANTONIO VORTAC116.8008E
SSFr017/(13.5)STINSON VOR108.4009E

 
NDB name  Hdg/Dist  Freq  Var  ID
DEVINE052/37.335907EHHH .... .... ....

Heliport Services

Fuel available: 100LL

Runway Information

Helipad H1

Dimensions: 900 x 250 ft. / 274 x 76 m
Surface: concrete/turf
Traffic pattern: leftleft

Heliport Ownership and Management from official FAA records

Ownership: Privately-owned
Owner: TIMOTHY ELGENE JOHNSON
8059 IH 10 EAST
CONVERSE, TX 78109
Phone 210-384-2837
Manager: TIMOTHY E JOHNSON
8059 IH 10 EAST
SAN ANTONIO, TX 78109
Phone 210-384-2837

Heliport Operational Statistics

Aircraft based on the field: 1
Helicopters: 1
    

Instrument Procedures

There are no published instrument procedures at 50TS.

Some nearby airports with instrument procedures:

KRND - Randolph Air Force Base (5 nm NE)
KSAT - San Antonio International Airport (8 nm NW)
KSSF - Stinson Municipal Airport (10 nm SW)
KSKF - Kelly Field Airport (14 nm W)
KBAZ - New Braunfels Regional Airport (21 nm NE)
 
Loc | Ops | Rwys | IFR | FBO | Links
Com | Nav | Svcs | Stats | Notes

AirNav Hotels Sweepstakes
 
Area around 50TS (TJ-CJ Private Heliport)
 
Road maps at: MapQuest Bing Google
 
Aerial photo
No photo
 
Sectional chart

 
Airport distance calculator
Flying to TJ-CJ Private Heliport? Find the distance to fly.

From to 50TS

Sunrise and sunset
Times for 20-Apr-2018
 Local
(UTC-5)
 Zulu
(UTC)
Morning civil twilight06:3811:38
Sunrise07:0312:03
Sunset20:0201:02
Evening civil twilight20:2601:26

Current date and time
Zulu (UTC)  20-Apr-2018 12:47:12
Local (UTC-5)  20-Apr-2018 07:47:12
 
METAR
KRND 
5nm NE 
201156Z AUTO 08007KT 10SM CLR 13/06 A3017 RMK AO2 SLP213 T01320063 10157 20132 50000
KSAT 
8nm NW 
201151Z 09011KT 10SM SCT050 BKN200 15/05 A3016 RMK AO2 SLP199 T01500050 10167 20144 58003
KSSF 
10nm SW 
201153Z 09010KT 10SM CLR 15/07 A3013 RMK AO2 SLP197 T01500067 10178 20150 58003 $
KSKF 
14nm SW 
201156Z AUTO 08011KT 10SM CLR 15/06 A3012 RMK AO2 SLP195 T01510059 10177 20151 58002 $
TAF
KRND 
5nm NE 
200900Z 2009/2115 06006KT 9999 FEW100 BKN200 QNH3010INS BECMG 2014/2015 11012G20KT 9999 BKN050 OVC100 QNH3008INS BECMG 2102/2103 12009KT 9999 BKN015 OVC030 QNH2997INS BECMG 2108/2109 11009KT 8000 BR OVC007 QNH2996INS BECMG 2111/2112 11009KT 6000 BR -RA OVC005 QNH2995INS TX22/2021Z TN11/2012Z
KSAT 
8nm NW 
201143Z 2012/2118 08007KT P6SM BKN200 FM201400 10013KT P6SM BKN050 FM202000 12012G22KT P6SM BKN035 FM210300 10012KT P6SM BKN025 FM210800 13010KT P6SM OVC009
KSSF 
10nm SW 
201143Z 2012/2112 07005KT P6SM BKN200 FM201400 10010KT P6SM BKN050 FM202000 12012G22KT P6SM BKN035 FM210300 11011KT P6SM OVC015 FM210700 12010KT P6SM OVC009
KSKF 
14nm SW 
201000Z 2010/2116 06009KT 9999 FEW100 SCT200 QNH3010INS BECMG 2014/2015 12012G20KT 9999 BKN050 OVC100 QNH3000INS BECMG 2102/2103 12012KT 9999 BKN015 OVC030 QNH2996INS BECMG 2108/2109 11006KT 8000 BR OVC007 QNH2995INS BECMG 2111/2112 11006KT 6000 BR -RA OVC005 QNH2994INS TX22/2021Z TN14/2012Z
NOTAMs
Click for the latest NOTAMs
NOTAMs are issued by the DoD/FAA and will open in a separate window not controlled by AirNav.

 

 
 

Would you like to see your business listed on this page?

 If your business provides an interesting product or service to pilots, flight crews, aircraft, or users of the TJ-CJ Private Heliport, you should consider listing it here.  To start the listing process, click on the button below
 
Add a business
 

Other Pages about TJ-CJ Private Heliport

Update a link
 
Copyright © AirNav, LLC. All rights reserved. Privacy Policy  Contact